Time;durP1;ratioP1;P1;durP2;ratioP2;P2;SDS_P1;SDS_P2;PMS_P1;PMS_P2;Temp;Humidity;BMP_temperature;BMP_pressure;BME280_temperature;BME280_humidity;BME280_pressure;Samples;Min_cycle;Max_cycle;Signal;HPM_P1;HPM_P2
2023/07/12 00:01:34;;;;;;;13.45;12.05;;;;;;;25.03;49.85;93298.16;5008843;28;20033;-94
2023/07/12 00:03:59;;;;;;;12.65;11.25;;;;;;;25.07;49.87;93315.13;5014024;28;20049;-92
2023/07/12 00:06:36;;;;;;;18.27;11.13;;;;;;;25.05;49.87;93395.16;4991919;28;20041;-92
2023/07/12 00:09:04;;;;;;;19.05;12.07;;;;;;;25.08;49.67;93427.25;4995315;28;20052;-91
2023/07/12 00:11:30;;;;;;;16.05;12.43;;;;;;;25.06;49.62;93440.88;4980639;28;20384;-91
2023/07/12 00:13:55;;;;;;;17.35;12.20;;;;;;;25.08;49.63;93481.81;4996753;28;20049;-90
2023/07/12 00:16:33;;;;;;;40.22;12.40;;;;;;;25.08;49.52;93517.78;4995432;28;20038;-92
2023/07/12 00:18:59;;;;;;;34.17;12.38;;;;;;;25.07;49.58;93508.00;4994580;28;20116;-90
2023/07/12 00:21:26;;;;;;;14.32;12.40;;;;;;;25.05;49.76;93529.94;4994671;28;20095;-94
2023/07/12 00:23:55;;;;;;;30.67;13.60;;;;;;;25.03;49.96;93518.69;4997213;28;20065;-94
2023/07/12 00:26:25;;;;;;;18.35;11.88;;;;;;;25.02;49.86;93537.31;4995695;28;20507;-94
2023/07/12 00:28:51;;;;;;;18.27;12.27;;;;;;;25.07;49.88;93535.66;5030280;28;20076;-93
2023/07/12 00:31:16;;;;;;;17.13;11.60;;;;;;;25.04;49.67;93531.97;5010586;28;20041;-93
2023/07/12 00:33:43;;;;;;;17.15;11.10;;;;;;;25.03;49.79;93546.34;4977173;28;20038;-90
2023/07/12 00:36:17;;;;;;;22.10;11.10;;;;;;;25.03;49.90;93552.63;4976616;28;20522;-94
2023/07/12 00:38:43;;;;;;;19.55;11.82;;;;;;;25.02;49.61;93536.59;4978256;28;20279;-91
2023/07/12 00:41:16;;;;;;;16.98;11.15;;;;;;;25.02;49.74;93558.72;5009295;28;20088;-92
2023/07/12 00:43:42;;;;;;;13.43;10.45;;;;;;;25.03;49.97;93555.41;4960107;28;20070;-92
2023/07/12 00:46:16;;;;;;;15.98;11.75;;;;;;;25.03;49.84;93549.13;5008577;28;20038;-91
2023/07/12 00:48:45;;;;;;;12.98;11.27;;;;;;;25.03;49.76;93535.28;5025454;28;20065;-95
2023/07/12 00:51:31;;;;;;;16.45;11.63;;;;;;;25.00;49.85;93537.13;5010686;28;20415;-91
2023/07/12 00:53:57;;;;;;;15.82;10.63;;;;;;;25.01;49.95;93541.38;5014521;28;20049;-94
2023/07/12 00:56:23;;;;;;;16.67;12.27;;;;;;;25.00;49.91;93541.91;4990987;28;20049;-92
2023/07/12 00:58:49;;;;;;;17.55;10.93;;;;;;;25.00;50.00;93539.16;4977492;28;20046;-92
2023/07/12 01:01:16;;;;;;;13.05;10.57;;;;;;;25.00;50.05;93548.19;4976787;28;20041;-93
2023/07/12 01:03:43;;;;;;;17.00;11.68;;;;;;;24.98;50.09;93528.66;5027593;28;20043;-90
2023/07/12 01:06:10;;;;;;;12.60;9.65;;;;;;;24.98;50.02;93519.59;4985863;28;20124;-94
2023/07/12 01:08:36;;;;;;;17.48;10.93;;;;;;;24.99;50.04;93515.56;4994312;28;20526;-91
2023/07/12 01:11:02;;;;;;;19.83;10.65;;;;;;;24.98;50.12;93530.66;4992432;28;20045;-92
2023/07/12 01:13:38;;;;;;;13.95;11.55;;;;;;;24.97;50.12;93545.78;5009376;28;20045;-93
2023/07/12 01:16:04;;;;;;;15.85;11.32;;;;;;;24.98;50.18;93538.97;4996657;28;20044;-90
2023/07/12 01:18:29;;;;;;;19.02;11.88;;;;;;;24.96;50.17;93533.25;5005904;28;20204;-90
2023/07/12 01:21:17;;;;;;;16.90;11.80;;;;;;;24.94;50.20;93526.22;4998199;28;20041;-90
2023/07/12 01:23:43;;;;;;;17.90;11.57;;;;;;;24.93;50.33;93524.00;5012285;28;20507;-89
2023/07/12 01:26:23;;;;;;;14.52;10.80;;;;;;;24.92;50.33;93511.44;4995408;28;20037;-89
2023/07/12 01:28:52;;;;;;;18.67;12.68;;;;;;;24.91;50.26;93515.50;5012723;28;20057;-90
2023/07/12 01:31:17;;;;;;;16.90;11.45;;;;;;;24.90;50.15;93506.47;5000649;28;20527;-89
2023/07/12 01:33:43;;;;;;;22.52;12.23;;;;;;;24.90;50.39;93498.19;5001501;28;20064;-89
2023/07/12 01:36:08;;;;;;;17.10;11.45;;;;;;;24.89;50.44;93485.66;4989661;28;20028;-92
2023/07/12 01:38:34;;;;;;;19.67;10.57;;;;;;;24.90;50.40;93467.00;5016606;28;20037;-92
2023/07/12 01:40:59;;;;;;;21.98;11.80;;;;;;;24.90;50.36;93461.47;4986527;28;20036;-92
2023/07/12 01:43:25;;;;;;;16.35;10.85;;;;;;;24.89;50.27;93460.78;4996339;28;20122;-89
2023/07/12 01:45:51;;;;;;;21.30;11.93;;;;;;;24.87;50.35;93446.75;4999772;28;20048;-89
2023/07/12 01:48:16;;;;;;;22.75;12.00;;;;;;;24.87;50.30;93432.19;4997927;28;20034;-93
2023/07/12 01:50:42;;;;;;;16.00;10.77;;;;;;;24.87;50.64;93448.78;4996045;28;20157;-89
2023/07/12 01:53:08;;;;;;;22.10;13.32;;;;;;;24.86;50.34;93459.09;4984132;28;20073;-90
2023/07/12 01:55:34;;;;;;;18.60;10.65;;;;;;;24.86;50.42;93453.59;5023490;28;20491;-90
2023/07/12 01:57:59;;;;;;;18.10;10.23;;;;;;;24.87;50.49;93430.16;4994324;28;20107;-90
2023/07/12 02:00:24;;;;;;;19.73;10.10;;;;;;;24.84;50.50;93414.69;5007308;28;20046;-90
2023/07/12 02:02:50;;;;;;;29.52;12.35;;;;;;;24.85;50.49;93407.13;4980229;28;20065;-89
2023/07/12 02:05:15;;;;;;;27.73;12.27;;;;;;;24.84;50.71;93428.50;4988794;28;20033;-91
2023/07/12 02:07:41;;;;;;;24.35;11.38;;;;;;;24.84;50.88;93400.84;5012291;28;20065;-90
2023/07/12 02:10:12;;;;;;;21.02;12.20;;;;;;;24.83;50.55;93371.00;4993335;28;20489;-90
2023/07/12 02:12:37;;;;;;;20.98;12.35;;;;;;;24.81;50.51;93371.53;4992058;28;20046;-91
2023/07/12 02:15:03;;;;;;;15.30;11.00;;;;;;;24.81;50.61;93384.63;4992177;28;20066;-90
2023/07/12 02:17:28;;;;;;;17.75;11.48;;;;;;;24.81;50.52;93385.38;4995090;28;20452;-91
2023/07/12 02:19:54;;;;;;;23.33;12.55;;;;;;;24.80;50.59;93370.06;5011359;28;20041;-92
2023/07/12 02:22:19;;;;;;;20.90;11.88;;;;;;;24.81;50.58;93374.31;5010577;28;20038;-93
2023/07/12 02:24:45;;;;;;;15.77;10.40;;;;;;;24.81;50.67;93354.94;4993980;28;20376;-89
2023/07/12 02:27:10;;;;;;;18.85;10.45;;;;;;;24.79;50.57;93352.00;4993302;28;20054;-94
2023/07/12 02:29:35;;;;;;;20.95;11.43;;;;;;;24.79;50.74;93351.28;4994637;28;20100;-94
2023/07/12 02:32:01;;;;;;;25.02;11.60;;;;;;;24.79;50.76;93371.34;4994199;28;20040;-91
2023/07/12 02:34:26;;;;;;;21.27;10.88;;;;;;;24.80;50.86;93366.56;4990952;28;20504;-91
2023/07/12 02:36:52;;;;;;;14.85;10.25;;;;;;;24.78;50.70;93364.34;5010450;28;20084;-90
2023/07/12 02:39:17;;;;;;;18.48;10.93;;;;;;;24.78;50.79;93352.56;4993578;28;20048;-91
2023/07/12 02:41:42;;;;;;;23.40;11.23;;;;;;;24.78;50.48;93356.06;4999847;28;20038;-89
2023/07/12 02:44:08;;;;;;;16.70;10.45;;;;;;;24.79;50.89;93351.28;4993486;28;20042;-91
2023/07/12 02:46:33;;;;;;;19.50;8.93;;;;;;;24.77;51.04;93340.03;4993984;28;20676;-88
2023/07/12 02:48:59;;;;;;;17.27;11.20;;;;;;;24.77;50.85;93342.78;4993049;28;20042;-91
2023/07/12 02:51:24;;;;;;;19.90;10.20;;;;;;;24.77;50.81;93335.22;5009310;28;20095;-94
2023/07/12 02:53:51;;;;;;;19.45;9.32;;;;;;;24.77;50.66;93298.56;5010643;28;20038;-91
2023/07/12 02:56:16;;;;;;;17.05;9.48;;;;;;;24.77;50.98;93276.44;5010177;28;20124;-92
2023/07/12 02:58:41;;;;;;;19.58;10.85;;;;;;;24.75;50.86;93267.97;4995203;28;20455;-92
2023/07/12 03:01:07;;;;;;;22.67;11.50;;;;;;;24.75;50.89;93230.00;4993232;28;20049;-92
2023/07/12 03:03:32;;;;;;;20.35;10.98;;;;;;;24.74;50.90;93234.06;4992900;28;20041;-92
2023/07/12 03:06:06;;;;;;;15.77;9.40;;;;;;;24.75;50.84;93248.59;5009497;28;20115;-89
2023/07/12 03:08:31;;;;;;;15.43;8.65;;;;;;;24.74;50.84;93245.09;5015934;28;20034;-93
2023/07/12 03:11:02;;;;;;;18.08;10.30;;;;;;;24.74;50.97;93238.84;4990429;28;20054;-93
2023/07/12 03:13:27;;;;;;;;;;;;;;;24.74;50.92;93256.16;4981698;28;20042;-92
2023/07/12 03:15:52;;;;;;;17.90;9.45;;;;;;;24.73;50.90;93268.50;5007602;28;20337;-90
2023/07/12 03:18:18;;;;;;;16.55;9.55;;;;;;;24.72;50.90;93275.34;5010572;28;20037;-94
2023/07/12 03:20:43;;;;;;;18.35;9.65;;;;;;;24.73;50.86;93276.81;5010187;28;20037;-88
2023/07/12 03:23:09;;;;;;;13.75;9.57;;;;;;;24.73;50.87;93265.00;5008191;28;20041;-90
2023/07/12 03:25:35;;;;;;;14.48;9.55;;;;;;;24.72;50.86;93263.53;4990236;28;20041;-92
2023/07/12 03:28:00;;;;;;;19.45;9.25;;;;;;;24.74;51.06;93269.25;4996902;28;20046;-88
2023/07/12 03:30:26;;;;;;;19.95;10.13;;;;;;;24.72;50.94;93255.97;4999039;28;20037;-87
2023/07/12 03:32:52;;;;;;;25.73;10.23;;;;;;;24.73;51.23;93246.41;5037342;28;20535;-91
2023/07/12 03:35:17;;;;;;;157.15;140.15;;;;;;;24.77;51.32;93235.69;5010780;28;20041;-88
2023/07/12 03:37:43;;;;;;;29.50;15.25;;;;;;;24.70;52.38;93233.69;4991842;28;20045;-89
2023/07/12 03:40:08;;;;;;;13.00;4.38;;;;;;;24.70;53.19;93219.88;4988161;28;20040;-87
2023/07/12 03:42:34;;;;;;;85.40;59.45;;;;;;;24.56;53.64;93207.56;5023897;28;20065;-92
2023/07/12 03:45:00;;;;;;;14.63;7.93;;;;;;;24.46;54.32;93196.34;5025783;28;20042;-89
2023/07/12 03:47:25;;;;;;;9.90;3.40;;;;;;;24.39;54.36;93185.31;4992073;28;20068;-88
2023/07/12 03:49:50;;;;;;;9.18;3.15;;;;;;;24.09;54.74;93180.53;5010073;28;20068;-89
2023/07/12 03:52:16;;;;;;;4.13;2.60;;;;;;;23.99;55.19;93179.63;4992503;28;20064;-89
2023/07/12 03:54:41;;;;;;;4.95;2.20;;;;;;;23.90;54.72;93169.88;4998149;28;20543;-87
2023/07/12 03:57:07;;;;;;;5.65;1.95;;;;;;;23.88;54.88;93164.91;4990284;28;20095;-89
2023/07/12 03:59:32;;;;;;;3.10;1.73;;;;;;;23.75;55.50;93159.59;5009387;28;20045;-88
2023/07/12 04:01:58;;;;;;;12.20;4.10;;;;;;;23.59;55.71;93152.59;5007849;28;20068;-90
2023/07/12 04:04:23;;;;;;;19.55;7.03;;;;;;;23.66;55.44;93154.59;5007301;28;20049;-89
2023/07/12 04:06:49;;;;;;;42.22;8.80;;;;;;;23.59;55.71;93147.06;4992870;28;20041;-92
2023/07/12 04:09:14;;;;;;;19.00;10.20;;;;;;;23.54;56.01;93145.22;4986173;28;20201;-90
2023/07/12 04:11:41;;;;;;;32.17;11.38;;;;;;;23.35;56.31;93137.28;5005433;28;20041;-89
2023/07/12 04:14:07;;;;;;;58.50;35.78;;;;;;;23.43;56.17;93135.25;5010784;28;20042;-90
2023/07/12 04:16:32;;;;;;;74.20;29.38;;;;;;;23.56;56.33;93135.13;5009200;28;20041;-94
2023/07/12 04:18:57;;;;;;;42.20;16.08;;;;;;;23.45;56.02;93127.16;5007923;28;20393;-89
2023/07/12 04:21:23;;;;;;;48.60;20.92;;;;;;;23.64;55.36;93118.53;4992021;28;20459;-90
2023/07/12 04:23:49;;;;;;;77.13;32.10;;;;;;;23.51;55.61;93107.66;4996883;28;20118;-90
2023/07/12 04:26:15;;;;;;;61.90;31.90;;;;;;;23.51;55.66;93097.38;4992711;28;20121;-88
2023/07/12 04:28:42;;;;;;;71.78;35.53;;;;;;;23.42;55.97;93078.59;4979211;28;20146;-90
2023/07/12 04:31:10;;;;;;;41.88;20.67;;;;;;;23.43;55.96;93088.34;4989421;28;20125;-90
2023/07/12 04:33:35;;;;;;;36.88;20.02;;;;;;;23.45;55.90;93094.06;4991395;28;20100;-89
2023/07/12 04:36:11;;;;;;;64.85;22.98;;;;;;;23.42;56.25;93089.63;5007629;28;20041;-93
2023/07/12 04:38:36;;;;;;;60.08;22.33;;;;;;;23.44;56.12;93072.53;5002272;28;20127;-91
2023/07/12 04:41:02;;;;;;;35.28;16.85;;;;;;;23.50;56.01;93060.03;5009225;28;20034;-92
2023/07/12 04:43:27;;;;;;;42.38;19.23;;;;;;;23.47;56.27;93079.72;5017813;28;20149;-88
2023/07/12 04:45:53;;;;;;;44.58;19.25;;;;;;;23.43;56.17;93082.81;5036436;28;20034;-88
2023/07/12 04:48:19;;;;;;;40.38;22.08;;;;;;;23.31;56.48;93072.72;4986600;28;20041;-91
2023/07/12 04:50:44;;;;;;;47.20;24.42;;;;;;;23.23;56.85;93078.22;5007733;28;20034;-90
2023/07/12 04:53:12;;;;;;;64.78;36.17;;;;;;;23.29;56.40;93087.06;4975399;28;21367;-92
2023/07/12 04:55:37;;;;;;;82.13;44.30;;;;;;;23.19;56.39;93083.38;4989724;28;20037;-88
2023/07/12 04:58:02;;;;;;;76.78;42.30;;;;;;;23.24;56.37;93083.19;4996724;28;20037;-91
2023/07/12 05:00:28;;;;;;;72.75;41.47;;;;;;;23.31;56.30;93095.53;5012025;28;20390;-90
2023/07/12 05:02:53;;;;;;;51.75;30.10;;;;;;;23.31;56.23;93097.53;5011317;28;20073;-92
2023/07/12 05:05:20;;;;;;;58.05;32.47;;;;;;;23.37;55.75;93096.09;5016602;28;20049;-93
2023/07/12 05:07:46;;;;;;;53.35;28.30;;;;;;;23.34;56.69;93097.19;5001288;28;20091;-91
2023/07/12 05:10:11;;;;;;;39.50;20.33;;;;;;;23.37;57.00;93093.31;5020489;28;20044;-91
2023/07/12 05:12:37;;;;;;;59.50;33.22;;;;;;;23.47;55.83;93087.97;5006183;28;20037;-91
2023/07/12 05:15:03;;;;;;;63.40;30.45;;;;;;;23.42;56.04;93091.66;5020049;28;20053;-87
2023/07/12 05:17:29;;;;;;;69.20;35.30;;;;;;;23.50;55.70;93089.63;5022844;28;20037;-91
2023/07/12 05:19:55;;;;;;;64.25;29.75;;;;;;;23.55;55.77;93088.75;5008378;28;20044;-93
2023/07/12 05:22:20;;;;;;;65.75;28.70;;;;;;;23.53;55.64;93089.31;5023940;28;20038;-89
2023/07/12 05:24:46;;;;;;;64.38;28.17;;;;;;;23.51;55.82;93091.13;4991789;28;20052;-91
2023/07/12 05:27:11;;;;;;;56.53;23.13;;;;;;;23.46;55.78;93090.00;4992279;28;20042;-89
2023/07/12 05:29:37;;;;;;;42.65;16.80;;;;;;;23.51;55.70;93088.34;4992110;28;20033;-89
2023/07/12 05:32:03;;;;;;;38.85;18.02;;;;;;;23.38;56.03;93097.56;5002038;28;20116;-91
2023/07/12 05:34:28;;;;;;;34.58;17.50;;;;;;;23.43;56.05;93106.91;4995854;28;20034;-89
2023/07/12 05:36:59;;;;;;;42.42;20.33;;;;;;;23.41;55.99;93115.00;4986427;28;20033;-89
2023/07/12 05:39:24;;;;;;;41.53;18.05;;;;;;;23.46;55.78;93108.59;5020947;28;20045;-92
2023/07/12 05:41:50;;;;;;;40.10;18.70;;;;;;;23.50;55.69;93125.50;5011191;28;20032;-89
2023/07/12 05:44:16;;;;;;;33.58;14.68;;;;;;;23.38;55.94;93122.38;5033280;28;20044;-93
2023/07/12 05:46:42;;;;;;;25.05;11.55;;;;;;;23.45;56.03;93127.16;4991663;28;20037;-93
2023/07/12 05:49:07;;;;;;;21.20;10.70;;;;;;;23.38;56.06;93144.47;4990581;28;20064;-94
2023/07/12 05:51:33;;;;;;;22.45;9.40;;;;;;;23.32;56.31;93135.63;4994684;28;20419;-90
2023/07/12 05:53:59;;;;;;;33.00;12.75;;;;;;;23.39;56.58;93139.66;5021379;28;20091;-90
2023/07/12 05:56:25;;;;;;;47.15;21.65;;;;;;;23.31;56.57;93141.69;5000653;28;20034;-90
2023/07/12 05:58:50;;;;;;;45.38;25.80;;;;;;;23.34;56.75;93144.06;5007090;28;20044;-91
2023/07/12 06:01:17;;;;;;;45.90;23.73;;;;;;;23.41;56.68;93148.13;4979168;28;20034;-89
2023/07/12 06:03:43;;;;;;;66.97;35.80;;;;;;;23.45;56.66;93148.50;4989588;28;20077;-92
2023/07/12 06:06:09;;;;;;;91.60;58.90;;;;;;;23.36;56.95;93140.78;5026699;28;20088;-90
2023/07/12 06:08:35;;;;;;;53.42;29.92;;;;;;;23.31;57.26;93144.44;4981518;28;20038;-90
2023/07/12 06:11:01;;;;;;;39.25;22.88;;;;;;;23.32;56.72;93152.16;5011814;28;20034;-91
2023/07/12 06:13:26;;;;;;;54.17;32.55;;;;;;;23.37;56.89;93154.00;5009584;28;20037;-89
2023/07/12 06:15:52;;;;;;;26.83;17.75;;;;;;;23.30;57.01;93137.44;5001459;28;20077;-89
2023/07/12 06:18:17;;;;;;;23.85;11.25;;;;;;;23.38;57.01;93147.22;4989589;28;20096;-91
2023/07/12 06:20:43;;;;;;;19.17;11.68;;;;;;;23.36;56.96;93141.50;5009758;28;20144;-93
2023/07/12 06:23:08;;;;;;;20.75;10.75;;;;;;;23.33;57.08;93141.88;4989859;28;20406;-91
2023/07/12 06:25:36;;;;;;;31.45;18.70;;;;;;;23.47;56.93;93140.41;5027580;28;20460;-92
2023/07/12 06:28:02;;;;;;;73.63;22.60;;;;;;;23.39;57.30;93145.91;4993305;28;20080;-92
2023/07/12 06:30:37;;;;;;;73.60;20.70;;;;;;;23.45;57.05;93151.97;4984557;28;20038;-92
2023/07/12 06:33:05;;;;;;;26.25;11.60;;;;;;;23.44;57.00;93153.28;5006436;28;20121;-92
2023/07/12 06:35:31;;;;;;;66.32;20.48;;;;;;;23.35;57.58;93147.56;5004410;28;20596;-93
2023/07/12 06:37:57;;;;;;;52.90;19.42;;;;;;;23.42;57.28;93155.84;5009944;28;20045;-90
2023/07/12 06:40:23;;;;;;;33.50;12.75;;;;;;;23.44;57.43;93164.31;4995667;28;20120;-93
2023/07/12 06:42:54;;;;;;;80.53;23.33;;;;;;;23.48;57.28;93169.47;4997094;28;20434;-94
2023/07/12 06:45:19;;;;;;;43.97;17.65;;;;;;;23.49;57.31;93163.41;4970804;28;20089;-92
2023/07/12 06:47:45;;;;;;;73.50;31.08;;;;;;;23.52;57.06;93175.38;4995957;28;20045;-94
2023/07/12 06:50:10;;;;;;;50.10;21.98;;;;;;;23.57;57.27;93185.53;4999831;28;20034;-94
2023/07/12 06:52:36;;;;;;;52.47;19.92;;;;;;;23.46;57.59;93181.03;4992712;28;20045;-93
2023/07/12 06:55:02;;;;;;;41.75;17.33;;;;;;;23.56;57.21;93195.09;4988612;28;20045;-93
2023/07/12 06:57:29;;;;;;;26.45;13.73;;;;;;;23.61;57.35;93193.41;4994103;28;20050;-93
2023/07/12 06:59:54;;;;;;;40.47;17.25;;;;;;;23.48;57.68;93206.06;5015470;28;20029;-93
2023/07/12 07:02:20;;;;;;;44.92;18.17;;;;;;;23.51;57.48;93207.00;5020048;28;20030;-93
2023/07/12 07:04:46;;;;;;;35.85;13.35;;;;;;;23.48;57.68;93208.81;4994308;28;20049;-93
2023/07/12 07:07:11;;;;;;;31.67;12.35;;;;;;;23.51;57.82;93209.75;4992694;28;20041;-92
2023/07/12 07:09:38;;;;;;;26.70;10.05;;;;;;;23.46;57.86;93213.41;5011788;28;20053;-93
2023/07/12 07:12:05;;;;;;;23.40;9.40;;;;;;;23.46;58.05;93216.91;5002220;28;20393;-91
2023/07/12 07:14:31;;;;;;;26.08;9.73;;;;;;;23.53;57.78;93204.44;4991809;28;20412;-92
2023/07/12 07:16:57;;;;;;;21.42;9.90;;;;;;;23.55;58.01;93197.09;5006699;28;20159;-92
2023/07/12 07:19:24;;;;;;;34.38;15.30;;;;;;;23.53;57.90;93199.69;5028102;28;20049;-92
2023/07/12 07:21:50;;;;;;;38.95;17.77;;;;;;;23.51;58.47;93199.47;4991882;28;20034;-86
2023/07/12 07:24:17;;;;;;;41.83;23.58;;;;;;;23.54;58.09;93200.41;5002406;28;20423;-88
2023/07/12 07:26:43;;;;;;;58.22;36.13;;;;;;;23.51;58.24;93196.69;4986584;28;20057;-87
2023/07/12 07:29:08;;;;;;;82.60;45.85;;;;;;;23.55;58.38;93207.41;5007691;28;20050;-90
2023/07/12 07:31:34;;;;;;;71.25;40.88;;;;;;;23.58;57.92;93206.31;4969651;28;20065;-86
2023/07/12 07:33:59;;;;;;;83.38;45.67;;;;;;;23.61;58.19;93204.44;5002916;28;20353;-88
2023/07/12 07:36:25;;;;;;;80.57;40.42;;;;;;;23.58;58.12;93215.31;5023530;28;20411;-88
2023/07/12 07:38:52;;;;;;;55.72;32.95;;;;;;;23.70;57.97;93215.69;5004645;28;20092;-89
2023/07/12 07:41:17;;;;;;;49.40;27.02;;;;;;;23.66;58.03;93203.53;4990384;28;20053;-88
2023/07/12 07:43:44;;;;;;;44.35;23.83;;;;;;;23.74;57.67;93213.31;5015100;28;20129;-93
2023/07/12 07:46:12;;;;;;;45.97;22.52;;;;;;;23.76;57.59;93202.47;5026401;28;20491;-92
2023/07/12 07:48:38;;;;;;;41.22;18.27;;;;;;;23.73;58.09;93214.59;4999877;28;20042;-92
2023/07/12 07:51:03;;;;;;;39.28;19.10;;;;;;;23.70;57.95;93223.97;5018292;28;20148;-93
2023/07/12 07:53:29;;;;;;;27.45;12.95;;;;;;;23.73;57.74;93213.84;4993808;28;20046;-94
2023/07/12 07:55:55;;;;;;;34.92;15.90;;;;;;;23.74;57.90;93215.34;4980282;28;20411;-94
2023/07/12 07:58:21;;;;;;;41.03;19.42;;;;;;;23.75;57.64;93216.81;4984814;28;20056;-92
2023/07/12 08:00:46;;;;;;;33.25;18.30;;;;;;;23.69;57.83;93230.78;4998549;28;20487;-93
2023/07/12 08:03:12;;;;;;;29.92;16.15;;;;;;;23.70;58.08;93235.00;4990945;28;20045;-93
2023/07/12 08:05:38;;;;;;;35.63;18.33;;;;;;;23.77;57.89;93252.88;4997850;28;20053;-92
2023/07/12 08:08:03;;;;;;;34.03;15.70;;;;;;;23.68;58.03;93250.66;4998262;28;20522;-93
2023/07/12 08:10:29;;;;;;;29.67;14.73;;;;;;;23.67;58.63;93246.41;4999252;28;20473;-93
2023/07/12 08:12:56;;;;;;;29.67;18.40;;;;;;;23.64;58.79;93251.00;5029678;28;20033;-92
2023/07/12 08:15:22;;;;;;;46.60;29.10;;;;;;;23.67;58.74;93252.66;5032220;28;20041;-91
2023/07/12 08:17:47;;;;;;;60.28;33.97;;;;;;;23.69;59.04;93249.38;5005523;28;20507;-90
2023/07/12 08:20:13;;;;;;;159.88;101.03;;;;;;;23.77;58.54;93242.56;4990610;28;20051;-89
2023/07/12 08:22:39;;;;;;;50.40;25.80;;;;;;;23.78;58.41;93244.06;5012577;28;20038;-91
2023/07/12 08:25:05;;;;;;;63.63;26.50;;;;;;;23.75;58.59;93242.38;4999008;28;20053;-94
2023/07/12 08:27:31;;;;;;;47.40;22.42;;;;;;;23.79;58.42;93255.81;5017300;28;20044;-92
2023/07/12 08:30:00;;;;;;;42.28;15.45;;;;;;;23.86;58.12;93257.84;5001684;28;20033;-93
2023/07/12 08:32:27;;;;;;;37.47;15.63;;;;;;;23.87;58.32;93254.53;5012693;28;20149;-92
2023/07/12 08:34:54;;;;;;;23.95;10.38;;;;;;;23.84;58.52;93255.63;5003837;23;20053;-90
2023/07/12 08:37:21;;;;;;;33.50;18.65;;;;;;;23.96;57.66;93253.25;5007181;23;20128;-92
2023/07/12 08:39:46;;;;;;;21.42;8.30;;;;;;;23.88;57.10;93255.28;5014489;28;20416;-94
2023/07/12 08:42:14;;;;;;;20.00;8.45;;;;;;;23.87;57.27;93253.78;5017450;28;20041;-92
2023/07/12 08:44:41;;;;;;;19.88;7.28;;;;;;;23.86;56.93;93244.03;5025995;28;20424;-94
2023/07/12 08:47:21;;;;;;;14.20;9.35;;;;;;;23.90;57.00;93245.16;5033191;28;20091;-93
2023/07/12 08:49:49;;;;;;;22.08;9.75;;;;;;;23.80;57.55;93252.53;5014667;28;20045;-96
2023/07/12 08:52:19;;;;;;;26.42;10.68;;;;;;;23.86;57.78;93255.09;5006353;28;20159;-93
2023/07/12 08:54:45;;;;;;;21.92;9.82;;;;;;;23.89;57.21;93256.75;5008442;28;20491;-94
2023/07/12 08:57:23;;;;;;;24.15;8.98;;;;;;;23.84;57.51;93261.16;5006651;28;20038;-93
2023/07/12 09:00:17;;;;;;;13.68;6.78;;;;;;;23.93;57.25;93255.09;4999239;28;20038;-95
2023/07/12 09:02:44;;;;;;;23.30;7.07;;;;;;;23.94;57.03;93264.13;5031094;28;20061;-93
2023/07/12 09:05:16;;;;;;;16.50;5.70;;;;;;;24.02;56.36;93272.41;5013851;28;20501;-94
2023/07/12 09:07:49;;;;;;;12.75;6.05;;;;;;;24.00;56.59;93267.44;5019414;28;20061;-91
2023/07/12 09:10:33;;;;;;;14.65;8.55;;;;;;;24.03;56.33;93268.38;5029383;28;20125;-91
2023/07/12 09:12:59;;;;;;;20.67;9.88;;;;;;;23.96;56.26;93264.31;5017301;28;20049;-91
2023/07/12 09:15:34;;;;;;;14.40;8.15;;;;;;;23.87;56.81;93268.34;5014457;28;20137;-91
2023/07/12 09:18:00;;;;;;;11.45;7.53;;;;;;;23.83;57.26;93278.25;5001029;28;20110;-93
2023/07/12 09:20:28;;;;;;;16.58;7.85;;;;;;;23.74;57.64;93282.31;5019439;28;20414;-93
2023/07/12 09:22:53;;;;;;;13.65;8.55;;;;;;;23.79;57.85;93294.47;5010422;28;20037;-93
2023/07/12 09:25:24;;;;;;;18.95;7.03;;;;;;;23.79;58.26;93297.22;5029021;28;20043;-93
2023/07/12 09:27:49;;;;;;;17.98;6.60;;;;;;;23.76;58.45;93290.03;5017417;28;20034;-92
2023/07/12 09:30:19;;;;;;;17.70;5.68;;;;;;;23.77;58.74;93283.97;5046090;28;20029;-90
2023/07/12 09:32:45;;;;;;;12.90;5.82;;;;;;;23.87;58.46;93271.09;5028496;28;20038;-94
2023/07/12 09:35:38;;;;;;;13.23;5.47;;;;;;;23.77;58.87;93264.66;5027226;28;20045;-89
2023/07/12 09:38:08;;;;;;;12.93;6.75;;;;;;;23.76;58.96;93254.91;5005298;28;20041;-94
2023/07/12 09:40:40;;;;;;;26.90;13.98;;;;;;;23.79;58.93;93256.56;5014035;28;20109;-93
2023/07/12 09:43:17;;;;;;;36.45;17.50;;;;;;;23.78;59.07;93257.84;5032771;28;20044;-94
2023/07/12 09:45:53;;;;;;;34.72;17.73;;;;;;;23.83;59.09;93270.72;5022536;28;20538;-90
2023/07/12 09:48:39;;;;;;;97.60;45.03;;;;;;;23.85;59.33;93284.72;5002846;28;20077;-92
2023/07/12 09:51:28;;;;;;;39.35;20.40;;;;;;;23.90;59.08;93267.25;5011193;28;20046;-92
2023/07/12 09:54:00;;;;;;;101.05;30.90;;;;;;;23.85;59.02;93279.19;5032536;28;20046;-91
2023/07/12 09:56:38;;;;;;;60.72;22.42;;;;;;;23.88;58.51;93255.28;5012310;28;20332;-92
2023/07/12 09:59:13;;;;;;;54.22;19.20;;;;;;;23.86;58.89;93266.13;5042306;28;20038;-92
2023/07/12 10:01:39;;;;;;;71.78;21.48;;;;;;;23.89;58.78;93262.28;5015811;28;20043;-93
2023/07/12 10:04:27;;;;;;;92.82;57.33;;;;;;;23.87;58.79;93273.84;5024008;28;20045;-91
2023/07/12 10:06:54;;;;;;;34.78;10.93;;;;;;;23.83;58.71;93270.72;5041632;28;20480;-92
2023/07/12 10:09:26;;;;;;;24.15;10.07;;;;;;;23.85;58.12;93264.66;5019930;28;20041;-91
2023/07/12 10:12:05;;;;;;;22.45;8.45;;;;;;;23.84;58.12;93260.41;4981236;28;20045;-91
2023/07/12 10:14:35;;;;;;;14.93;6.53;;;;;;;23.83;58.03;93262.44;5006415;28;20049;-90
2023/07/12 10:17:02;;;;;;;;;;;;;;;23.83;57.60;93267.22;5045128;28;20038;-91
2023/07/12 10:19:33;;;;;;;8.18;4.05;;;;;;;23.82;57.60;93255.44;5010748;28;20390;-94
2023/07/12 10:22:00;;;;;;;12.88;5.43;;;;;;;23.89;57.55;93268.53;5024810;28;20250;-91
2023/07/12 10:24:33;;;;;;;17.52;4.97;;;;;;;23.85;57.82;93265.38;5043071;28;20045;-91
2023/07/12 10:26:59;;;;;;;10.82;5.78;;;;;;;23.83;57.45;93247.91;5028196;28;20056;-91
2023/07/12 10:29:27;;;;;;;13.15;7.35;;;;;;;23.82;57.54;93249.91;5028581;28;20045;-91
2023/07/12 10:31:56;;;;;;;8.07;6.88;;;;;;;23.85;57.22;93251.59;5010826;28;20094;-91
2023/07/12 10:34:25;;;;;;;8.63;5.10;;;;;;;23.83;57.34;93247.91;5024778;28;20511;-92
2023/07/12 10:36:54;;;;;;;8.45;4.32;;;;;;;23.80;57.17;93232.47;5027450;28;20045;-92
2023/07/12 10:39:21;;;;;;;7.35;4.18;;;;;;;23.84;56.66;93236.31;5009338;28;20516;-91
2023/07/12 10:41:48;;;;;;;11.35;3.53;;;;;;;23.87;56.98;93240.72;5009414;28;20099;-91
2023/07/12 10:44:19;;;;;;;8.68;3.75;;;;;;;23.85;56.91;93242.56;5011553;28;20049;-92
2023/07/12 10:46:50;;;;;;;6.97;4.43;;;;;;;23.84;56.82;93246.63;5000696;28;20129;-91
2023/07/12 10:49:39;;;;;;;16.90;11.73;;;;;;;23.83;56.75;93240.34;5013486;28;20574;-91
2023/07/12 10:52:10;;;;;;;17.25;9.40;;;;;;;23.91;56.98;93246.63;5024250;28;20045;-90
2023/07/12 10:54:36;;;;;;;12.90;7.68;;;;;;;23.90;57.04;93234.09;5028754;28;20111;-89
2023/07/12 10:57:19;;;;;;;13.48;7.85;;;;;;;23.87;56.99;93245.50;5028761;28;20386;-90
2023/07/12 10:59:45;;;;;;;46.42;25.55;;;;;;;23.82;56.93;93247.16;5029884;28;20054;-90
2023/07/12 11:02:21;;;;;;;36.92;18.25;;;;;;;23.75;57.10;93242.38;5029610;28;20102;-90
2023/07/12 11:04:48;;;;;;;26.40;13.23;;;;;;;23.73;57.09;93244.97;5010619;28;20057;-92
2023/07/12 11:07:14;;;;;;;27.25;13.73;;;;;;;23.83;56.89;93240.34;5029166;28;20029;-89
2023/07/12 11:09:43;;;;;;;25.48;12.45;;;;;;;23.85;57.19;93234.28;5029817;28;20047;-90
2023/07/12 11:12:09;;;;;;;18.42;11.75;;;;;;;23.84;56.71;93241.81;5031158;28;20048;-89
2023/07/12 11:14:37;;;;;;;19.15;12.93;;;;;;;23.86;56.80;93233.00;5012197;28;20535;-90
2023/07/12 11:17:11;;;;;;;21.35;13.65;;;;;;;23.87;56.51;93234.47;5026858;28;20087;-92
2023/07/12 11:19:39;;;;;;;42.33;13.57;;;;;;;23.88;56.58;93230.44;5010604;28;20696;-91
2023/07/12 11:22:12;;;;;;;19.85;11.63;;;;;;;23.87;56.76;93215.88;5029368;28;20050;-92